Time;durP1;ratioP1;P1;durP2;ratioP2;P2;SDS_P1;SDS_P2;PMS_P1;PMS_P2;Temp;Humidity;BMP_temperature;BMP_pressure;BME280_temperature;BME280_humidity;BME280_pressure;Samples;Min_cycle;Max_cycle;Signal;HPM_P1;HPM_P2
2022/05/25 00:00:18;;;;;;;1.20;0.50;;;13.00;99.90;;;;;;4998674;28;20191;-66
2022/05/25 00:02:44;;;;;;;2.03;0.70;;;13.00;99.90;;;;;;5000294;28;20294;-67
2022/05/25 00:05:12;;;;;;;1.60;0.73;;;13.00;99.90;;;;;;5002275;28;20548;-66
2022/05/25 00:07:38;;;;;;;1.70;0.53;;;13.00;99.90;;;;;;4997598;28;20419;-66
2022/05/25 00:10:04;;;;;;;1.83;0.80;;;13.10;99.90;;;;;;4992437;28;20431;-67
2022/05/25 00:12:31;;;;;;;2.40;0.60;;;13.10;99.90;;;;;;4987623;28;20809;-67
2022/05/25 00:14:56;;;;;;;2.13;0.50;;;13.10;99.90;;;;;;4988350;28;20996;-69
2022/05/25 00:17:22;;;;;;;1.90;0.73;;;13.20;99.90;;;;;;4988459;28;20511;-69
2022/05/25 00:19:59;;;;;;;2.33;1.17;;;13.10;99.90;;;;;;4989107;28;20184;-69
2022/05/25 00:22:39;;;;;;;2.13;0.70;;;13.20;99.90;;;;;;4988140;28;20250;-69
2022/05/25 00:25:05;;;;;;;1.73;0.53;;;13.20;99.90;;;;;;4988634;28;20512;-66
2022/05/25 00:27:31;;;;;;;3.30;0.90;;;13.20;99.90;;;;;;4988126;28;20423;-67
2022/05/25 00:29:56;;;;;;;3.13;0.73;;;13.10;99.90;;;;;;4988434;28;20919;-66
2022/05/25 00:32:22;;;;;;;1.87;0.87;;;13.10;99.90;;;;;;4988442;28;20194;-66
2022/05/25 00:34:48;;;;;;;1.57;0.50;;;13.10;99.90;;;;;;4996665;28;20192;-66
2022/05/25 00:37:13;;;;;;;1.70;0.73;;;13.00;99.90;;;;;;4986713;28;20215;-66
2022/05/25 00:39:40;;;;;;;1.77;0.60;;;13.00;99.90;;;;;;4987938;28;20191;-66
2022/05/25 00:42:06;;;;;;;2.43;0.70;;;13.00;99.90;;;;;;4984650;28;20181;-66
2022/05/25 00:44:32;;;;;;;1.40;0.57;;;13.00;99.90;;;;;;4988001;28;20449;-66
2022/05/25 00:46:58;;;;;;;1.37;0.70;;;13.00;99.90;;;;;;4988233;28;21086;-66
2022/05/25 00:49:32;;;;;;;5.30;0.70;;;13.10;99.90;;;;;;4986817;28;20427;-66
2022/05/25 00:52:10;;;;;;;2.00;0.60;;;13.10;99.90;;;;;;4992593;28;20461;-66
2022/05/25 00:54:53;;;;;;;2.43;0.83;;;13.00;99.90;;;;;;4996023;28;20466;-66
2022/05/25 00:57:22;;;;;;;1.30;0.60;;;13.00;99.90;;;;;;4995743;28;21173;-66
2022/05/25 01:00:04;;;;;;;2.23;0.87;;;13.00;99.90;;;;;;5000215;28;20425;-67
2022/05/25 01:02:32;;;;;;;1.43;0.73;;;13.00;99.90;;;;;;4986075;28;20552;-66
2022/05/25 01:04:59;;;;;;;1.30;0.57;;;13.00;99.90;;;;;;4996424;28;20437;-66
2022/05/25 01:07:53;;;;;;;1.40;0.60;;;13.00;99.90;;;;;;4993887;28;20462;-66
2022/05/25 01:10:35;;;;;;;2.23;0.73;;;12.90;99.90;;;;;;4988570;28;20423;-66
2022/05/25 01:13:42;;;;;;;1.40;0.60;;;13.00;99.90;;;;;;4986984;28;20514;-66
2022/05/25 01:16:30;;;;;;;2.20;0.60;;;12.90;99.90;;;;;;4985588;28;20442;-66
2022/05/25 01:19:12;;;;;;;1.30;0.53;;;12.90;99.90;;;;;;4975248;28;20463;-66
2022/05/25 01:22:05;;;;;;;2.33;0.93;;;12.90;99.90;;;;;;4988023;28;20437;-66
2022/05/25 01:24:59;;;;;;;1.40;0.60;;;12.90;99.90;;;;;;4984110;28;20458;-66
2022/05/25 01:27:40;;;;;;;1.90;0.70;;;12.90;99.90;;;;;;4987129;28;20478;-66
2022/05/25 01:30:11;;;;;;;1.53;0.67;;;12.90;99.90;;;;;;4977206;28;20419;-66
2022/05/25 01:32:44;;;;;;;1.37;0.60;;;12.90;99.90;;;;;;4987880;28;20429;-66
2022/05/25 01:35:17;;;;;;;1.20;0.50;;;12.90;99.90;;;;;;4988519;28;20446;-67
2022/05/25 01:37:55;;;;;;;2.30;0.70;;;12.80;99.90;;;;;;4989510;28;20482;-66
2022/05/25 01:40:35;;;;;;;1.50;0.60;;;12.80;99.90;;;;;;4985103;28;20427;-66
2022/05/25 01:43:09;;;;;;;1.30;0.53;;;12.70;99.90;;;;;;4978896;28;20471;-66
2022/05/25 01:45:41;;;;;;;1.30;0.50;;;12.70;99.90;;;;;;4994561;28;20464;-69
2022/05/25 01:48:09;;;;;;;2.23;0.60;;;12.60;99.90;;;;;;4995711;28;20431;-66
2022/05/25 01:50:59;;;;;;;1.30;0.60;;;12.60;99.90;;;;;;4996382;28;20509;-66
2022/05/25 01:53:31;;;;;;;1.53;0.60;;;12.60;99.90;;;;;;4986901;28;20479;-66
2022/05/25 01:56:01;;;;;;;1.70;0.80;;;12.50;99.90;;;;;;4991072;28;20457;-68
2022/05/25 01:58:27;;;;;;;1.20;0.50;;;12.50;99.90;;;;;;4991187;28;20423;-67
2022/05/25 02:00:59;;;;;;;1.97;0.80;;;12.50;99.90;;;;;;4991471;28;20447;-67
2022/05/25 02:06:46;;;;;;;1.97;0.90;;;12.50;99.90;;;;;;5001079;28;20512;-66
2022/05/25 02:09:59;;;;;;;1.33;0.57;;;12.50;99.90;;;;;;4990746;28;20832;-67
2022/05/25 02:12:38;;;;;;;1.43;0.67;;;12.40;99.90;;;;;;4993988;28;20431;-67
2022/05/25 02:15:27;;;;;;;1.63;0.77;;;12.40;99.90;;;;;;4990475;28;20470;-66
2022/05/25 02:18:15;;;;;;;1.87;0.60;;;12.40;99.90;;;;;;4990600;28;20422;-67
2022/05/25 02:21:04;;;;;;;1.20;0.50;;;12.40;99.90;;;;;;4978503;28;20410;-67
2022/05/25 02:23:44;;;;;;;3.20;0.97;;;12.40;99.90;;;;;;4979665;28;20485;-67
2022/05/25 02:26:16;;;;;;;1.37;0.60;;;12.40;99.90;;;;;;5000889;28;20536;-67
2022/05/25 02:28:59;;;;;;;1.50;0.77;;;12.40;99.90;;;;;;4990947;28;20450;-66
2022/05/25 02:31:28;;;;;;;1.63;0.70;;;12.40;99.90;;;;;;4989511;28;20431;-66
2022/05/25 02:33:59;;;;;;;1.50;0.50;;;12.40;99.90;;;;;;4990963;28;20533;-67
2022/05/25 02:36:26;;;;;;;1.60;0.70;;;12.30;99.90;;;;;;4995017;28;21205;-67
2022/05/25 02:38:52;;;;;;;1.73;0.60;;;12.30;99.90;;;;;;5002072;28;20533;-66
2022/05/25 02:41:27;;;;;;;2.63;0.60;;;12.30;99.90;;;;;;4984294;28;20445;-67
2022/05/25 02:43:53;;;;;;;1.50;0.60;;;12.30;99.90;;;;;;4990178;28;20499;-66
2022/05/25 02:46:18;;;;;;;1.87;0.60;;;12.30;99.90;;;;;;4988241;28;20803;-67
2022/05/25 02:48:44;;;;;;;1.30;0.60;;;12.30;99.90;;;;;;4983180;28;20215;-67
2022/05/25 02:51:10;;;;;;;2.13;0.50;;;12.20;99.90;;;;;;4988511;28;20516;-67
2022/05/25 02:53:35;;;;;;;2.10;0.80;;;12.20;99.90;;;;;;4990031;28;20192;-66
2022/05/25 02:56:02;;;;;;;1.93;0.80;;;12.20;99.90;;;;;;4989725;28;20200;-67
2022/05/25 02:58:28;;;;;;;2.63;1.00;;;12.20;99.90;;;;;;4990286;28;20196;-67
2022/05/25 03:00:54;;;;;;;2.63;0.70;;;12.10;99.90;;;;;;4990584;28;21328;-67
2022/05/25 03:03:20;;;;;;;2.23;0.97;;;12.10;99.90;;;;;;4990101;28;20226;-68
2022/05/25 03:05:46;;;;;;;3.30;1.20;;;12.00;99.90;;;;;;5002004;28;20426;-67
2022/05/25 03:08:13;;;;;;;2.70;1.37;;;12.00;99.90;;;;;;4982394;28;20219;-67
2022/05/25 03:10:39;;;;;;;2.43;1.37;;;12.00;99.90;;;;;;4986375;28;20888;-67
2022/05/25 03:13:09;;;;;;;2.23;1.00;;;11.90;99.90;;;;;;4983149;28;21170;-66
2022/05/25 03:15:35;;;;;;;2.63;1.33;;;11.90;99.90;;;;;;4989649;28;20444;-67
2022/05/25 03:18:00;;;;;;;5.17;1.70;;;11.90;99.90;;;;;;4989728;28;20813;-67
2022/05/25 03:20:27;;;;;;;2.60;1.20;;;12.00;99.90;;;;;;4989771;28;20188;-66
2022/05/25 03:22:52;;;;;;;1.73;0.90;;;11.90;99.90;;;;;;4986422;28;20211;-67
2022/05/25 03:25:18;;;;;;;1.40;0.57;;;11.80;99.90;;;;;;4988654;28;20469;-67
2022/05/25 03:27:44;;;;;;;2.37;0.80;;;11.80;99.90;;;;;;4989195;28;20195;-67
2022/05/25 03:30:11;;;;;;;1.50;0.60;;;11.80;99.90;;;;;;4989940;28;20184;-67
2022/05/25 03:32:37;;;;;;;1.30;0.60;;;11.80;99.90;;;;;;4989705;28;20191;-67
2022/05/25 03:35:03;;;;;;;3.10;1.17;;;11.70;99.90;;;;;;4990837;28;20451;-67
2022/05/25 03:37:29;;;;;;;1.57;0.67;;;11.70;99.90;;;;;;4996903;28;20742;-67
2022/05/25 03:39:55;;;;;;;1.83;0.60;;;11.70;99.90;;;;;;4989112;28;20430;-67
2022/05/25 03:42:22;;;;;;;1.53;0.70;;;11.70;99.90;;;;;;4989139;28;20775;-66
2022/05/25 03:44:48;;;;;;;1.40;0.60;;;11.70;99.90;;;;;;4995338;28;20183;-67
2022/05/25 03:47:15;;;;;;;1.50;0.73;;;11.60;99.90;;;;;;4997536;28;20549;-67
2022/05/25 03:49:40;;;;;;;1.70;0.60;;;11.60;99.90;;;;;;4989680;28;20430;-66
2022/05/25 03:52:07;;;;;;;5.17;0.73;;;11.60;99.90;;;;;;4989798;28;20649;-67
2022/05/25 03:54:35;;;;;;;1.30;0.60;;;11.60;99.90;;;;;;4988693;28;20226;-67
2022/05/25 03:57:01;;;;;;;1.50;0.77;;;11.60;99.90;;;;;;4976176;28;20871;-68
2022/05/25 03:59:26;;;;;;;2.07;0.60;;;11.60;99.90;;;;;;4988906;28;20511;-66
2022/05/25 04:01:52;;;;;;;1.30;0.50;;;11.70;99.90;;;;;;4975416;28;20453;-66
2022/05/25 04:04:18;;;;;;;1.60;0.70;;;11.70;99.90;;;;;;4991791;28;20695;-66
2022/05/25 04:06:43;;;;;;;1.30;0.60;;;11.70;99.90;;;;;;5000130;28;20199;-67
2022/05/25 04:09:10;;;;;;;2.23;0.70;;;11.70;99.90;;;;;;4989429;28;20184;-67
2022/05/25 04:11:37;;;;;;;1.90;0.70;;;11.70;99.90;;;;;;4985159;28;20900;-67
2022/05/25 04:14:03;;;;;;;1.80;0.80;;;11.70;99.90;;;;;;4989040;28;20470;-67
2022/05/25 04:16:28;;;;;;;3.07;0.87;;;11.70;99.90;;;;;;4989000;28;20501;-67
2022/05/25 04:18:54;;;;;;;1.80;0.80;;;11.70;99.90;;;;;;4989109;28;20230;-67
2022/05/25 04:21:20;;;;;;;2.00;0.90;;;11.80;99.90;;;;;;4989072;28;20293;-66
2022/05/25 04:23:46;;;;;;;2.17;0.93;;;11.70;99.90;;;;;;4988895;28;20223;-67
2022/05/25 04:26:12;;;;;;;1.83;0.77;;;11.80;99.90;;;;;;4986962;28;20204;-66
2022/05/25 04:28:37;;;;;;;1.30;0.50;;;11.80;99.90;;;;;;4988202;28;20697;-67
2022/05/25 04:31:04;;;;;;;1.30;0.73;;;11.80;99.90;;;;;;4988899;28;20419;-67
2022/05/25 04:33:30;;;;;;;1.50;0.63;;;11.90;99.90;;;;;;4981987;28;20318;-67
2022/05/25 04:35:57;;;;;;;7.10;0.97;;;11.90;99.90;;;;;;4996805;28;20898;-67
2022/05/25 04:38:23;;;;;;;2.17;0.60;;;12.00;99.90;;;;;;4985252;28;20445;-67
2022/05/25 04:40:49;;;;;;;7.13;0.70;;;12.00;99.90;;;;;;4982233;28;20431;-67
2022/05/25 04:43:19;;;;;;;1.40;0.70;;;12.00;99.90;;;;;;4988563;28;20485;-65
2022/05/25 04:45:47;;;;;;;1.80;0.70;;;12.10;99.90;;;;;;4986836;28;20184;-65
2022/05/25 04:48:13;;;;;;;1.30;0.60;;;12.00;99.90;;;;;;4988479;28;20453;-64
2022/05/25 04:50:42;;;;;;;2.40;0.90;;;12.10;99.90;;;;;;4988124;28;20597;-66
2022/05/25 04:53:10;;;;;;;2.13;0.80;;;12.00;99.90;;;;;;4984116;28;20884;-66
2022/05/25 04:58:25;;;;;;;2.70;0.80;;;12.00;99.90;;;;;;4988714;28;20421;-66
2022/05/25 05:00:51;;;;;;;2.00;0.80;;;12.10;99.90;;;;;;4983214;28;20440;-67
2022/05/25 05:03:18;;;;;;;1.30;0.60;;;12.00;99.90;;;;;;4987834;28;20959;-66
2022/05/25 05:05:44;;;;;;;1.40;0.67;;;12.00;99.90;;;;;;4988465;28;20486;-68
2022/05/25 05:08:10;;;;;;;4.00;0.60;;;12.00;99.90;;;;;;4997982;28;20435;-66
2022/05/25 05:10:36;;;;;;;1.80;0.87;;;12.10;99.90;;;;;;4995688;28;20431;-67
2022/05/25 05:13:04;;;;;;;2.07;0.70;;;12.00;99.90;;;;;;4988069;28;20205;-66
2022/05/25 05:15:33;;;;;;;2.07;0.70;;;12.10;99.90;;;;;;4998960;28;20604;-67
2022/05/25 05:17:58;;;;;;;1.40;0.50;;;12.10;99.90;;;;;;4987942;28;20947;-66
2022/05/25 05:20:24;;;;;;;1.60;0.80;;;12.20;99.90;;;;;;4985147;28;20474;-66
2022/05/25 05:22:50;;;;;;;1.27;0.50;;;12.20;99.90;;;;;;4983127;28;20226;-67
2022/05/25 05:25:15;;;;;;;1.53;0.60;;;12.30;99.90;;;;;;4987569;28;20282;-67
2022/05/25 05:27:41;;;;;;;3.50;0.93;;;12.40;99.90;;;;;;4990243;28;20784;-67
2022/05/25 05:30:07;;;;;;;1.60;0.60;;;12.50;99.90;;;;;;4992004;28;20199;-67
2022/05/25 05:32:35;;;;;;;3.40;1.00;;;12.50;99.90;;;;;;4989063;28;20279;-66
2022/05/25 05:35:02;;;;;;;1.63;0.53;;;12.50;99.90;;;;;;4987383;28;20526;-67
2022/05/25 05:37:35;;;;;;;1.63;0.70;;;12.60;99.90;;;;;;4998077;28;20446;-66
2022/05/25 05:40:03;;;;;;;1.77;0.70;;;12.60;99.90;;;;;;4991615;28;20442;-67
2022/05/25 05:42:29;;;;;;;1.50;0.70;;;12.60;99.90;;;;;;4989797;28;20439;-67
2022/05/25 05:45:00;;;;;;;6.60;0.90;;;12.60;99.90;;;;;;4984176;28;20465;-67
2022/05/25 05:47:36;;;;;;;4.50;0.80;;;12.70;99.90;;;;;;4991546;28;20206;-68
2022/05/25 05:50:05;;;;;;;2.17;0.90;;;12.80;99.60;;;;;;4991667;28;21152;-67
2022/05/25 05:52:33;;;;;;;1.50;0.70;;;12.80;99.90;;;;;;4991068;28;20741;-67
2022/05/25 05:54:58;;;;;;;1.40;0.60;;;12.90;99.70;;;;;;4991501;28;20455;-66
2022/05/25 05:57:25;;;;;;;2.00;0.87;;;13.10;99.50;;;;;;5002270;28;20481;-67
2022/05/25 05:59:50;;;;;;;5.00;0.90;;;13.10;99.10;;;;;;5000634;28;20637;-67
2022/05/25 06:02:16;;;;;;;2.33;1.00;;;13.20;99.40;;;;;;4991162;28;20462;-67
2022/05/25 06:04:41;;;;;;;1.97;0.80;;;13.30;99.60;;;;;;4991650;28;20211;-67
2022/05/25 06:07:07;;;;;;;1.67;0.60;;;13.40;98.50;;;;;;4991114;28;20275;-66
2022/05/25 06:09:33;;;;;;;2.17;0.93;;;13.50;98.10;;;;;;4991017;28;20275;-66
2022/05/25 06:11:59;;;;;;;1.60;0.60;;;13.70;97.20;;;;;;4990383;28;20581;-66
2022/05/25 06:14:24;;;;;;;3.00;0.80;;;13.80;96.60;;;;;;4989777;28;20278;-66
2022/05/25 06:19:37;;;;;;;1.50;0.60;;;14.00;96.00;;;;;;4989169;28;20274;-67
2022/05/25 06:22:14;;;;;;;1.90;0.90;;;14.00;96.20;;;;;;4991268;28;20433;-66
2022/05/25 06:24:46;;;;;;;2.47;0.90;;;14.10;95.30;;;;;;4986708;28;20800;-66
2022/05/25 06:27:12;;;;;;;1.97;0.70;;;14.00;96.40;;;;;;4988385;28;20411;-66
2022/05/25 06:29:40;;;;;;;5.43;0.57;;;14.00;96.20;;;;;;4979627;28;20435;-66
2022/05/25 06:32:07;;;;;;;1.60;0.60;;;14.00;96.10;;;;;;4979795;28;20439;-66
2022/05/25 06:34:34;;;;;;;1.40;0.60;;;14.10;96.70;;;;;;4980651;28;20424;-66
2022/05/25 06:36:59;;;;;;;2.13;0.60;;;14.20;95.60;;;;;;4981752;28;20422;-66
2022/05/25 06:39:26;;;;;;;1.53;0.70;;;14.20;95.10;;;;;;4977569;28;20433;-66
2022/05/25 06:41:52;;;;;;;1.40;0.80;;;14.20;95.60;;;;;;4982959;28;20311;-66
2022/05/25 06:44:18;;;;;;;2.03;0.80;;;14.20;94.80;;;;;;4986079;28;20573;-66
2022/05/25 06:46:44;;;;;;;1.93;0.70;;;14.20;94.60;;;;;;4988054;28;20312;-66
2022/05/25 06:49:10;;;;;;;1.83;0.70;;;14.00;94.70;;;;;;4988032;28;21274;-67
2022/05/25 06:51:36;;;;;;;2.80;0.73;;;14.10;94.80;;;;;;4984105;28;20477;-66
2022/05/25 06:54:03;;;;;;;2.90;0.83;;;14.10;94.70;;;;;;4980730;28;20192;-66
2022/05/25 06:56:29;;;;;;;1.80;0.70;;;14.00;95.20;;;;;;4979331;28;20436;-66
2022/05/25 06:58:56;;;;;;;2.53;0.80;;;14.20;94.80;;;;;;4980156;28;20434;-66
2022/05/25 07:01:23;;;;;;;2.03;0.70;;;14.40;93.80;;;;;;4978216;28;20267;-66
2022/05/25 07:03:49;;;;;;;2.13;0.83;;;14.60;93.50;;;;;;4985510;28;20471;-66
2022/05/25 07:06:17;;;;;;;5.20;1.20;;;14.60;93.60;;;;;;4982173;28;20951;-66
2022/05/25 07:08:44;;;;;;;1.40;0.60;;;14.70;94.80;;;;;;4985129;28;20427;-67
2022/05/25 07:11:11;;;;;;;2.03;0.60;;;15.00;94.10;;;;;;4980924;28;20427;-66
2022/05/25 07:13:37;;;;;;;1.93;1.00;;;15.30;92.90;;;;;;4979837;28;20781;-67
2022/05/25 07:16:10;;;;;;;2.80;0.93;;;15.40;93.80;;;;;;4979109;28;20463;-66
2022/05/25 07:18:37;;;;;;;1.87;0.53;;;15.70;93.20;;;;;;4979730;28;20522;-66
2022/05/25 07:21:09;;;;;;;2.87;0.80;;;16.00;92.60;;;;;;4978166;28;20978;-66
2022/05/25 07:23:36;;;;;;;1.77;0.80;;;16.50;92.20;;;;;;4978779;28;20537;-66
2022/05/25 07:26:03;;;;;;;3.00;0.80;;;16.90;91.60;;;;;;4977556;28;20477;-68
2022/05/25 07:28:28;;;;;;;1.60;0.60;;;17.40;90.00;;;;;;4982553;28;20446;-68
2022/05/25 07:31:00;;;;;;;1.43;0.60;;;17.60;88.60;;;;;;4981038;28;20430;-68
2022/05/25 07:33:27;;;;;;;1.40;0.63;;;17.80;87.90;;;;;;4990201;28;20605;-68
2022/05/25 07:35:53;;;;;;;3.30;1.23;;;18.00;86.00;;;;;;4985627;28;20458;-69
2022/05/25 07:38:18;;;;;;;1.40;0.60;;;18.10;84.50;;;;;;4984777;28;20429;-68
2022/05/25 07:40:45;;;;;;;6.93;1.10;;;18.40;83.50;;;;;;4983624;28;20196;-68
2022/05/25 07:43:18;;;;;;;1.73;0.80;;;19.00;82.20;;;;;;4975047;28;20211;-68
2022/05/25 07:45:47;;;;;;;3.23;0.70;;;19.70;78.30;;;;;;4982543;28;20424;-68
2022/05/25 07:48:13;;;;;;;1.60;0.67;;;20.40;77.60;;;;;;4983126;28;20439;-68
2022/05/25 07:50:40;;;;;;;1.93;1.00;;;20.20;77.10;;;;;;4979209;28;20427;-67
2022/05/25 07:53:55;;;;;;;3.90;0.80;;;20.00;79.00;;;;;;4977539;28;20867;-68
2022/05/25 07:55:55;;;;;;;2.17;0.90;;;19.30;80.70;;;;;;4979362;28;20435;-67
2022/05/25 07:58:21;;;;;;;1.53;0.60;;;18.60;82.40;;;;;;4988132;28;20941;-68
2022/05/25 08:00:51;;;;;;;1.50;0.60;;;18.20;82.90;;;;;;4988612;28;20835;-67
2022/05/25 08:06:01;;;;;;;1.57;0.80;;;18.10;85.00;;;;;;4985925;28;20422;-66
2022/05/25 08:08:27;;;;;;;15.63;1.13;;;18.50;81.60;;;;;;4978241;28;20462;-68
2022/05/25 08:11:04;;;;;;;2.27;0.80;;;18.70;81.20;;;;;;4984013;28;20443;-66
2022/05/25 08:13:32;;;;;;;2.00;0.70;;;18.60;82.60;;;;;;4980711;28;20477;-67
2022/05/25 08:15:58;;;;;;;1.50;0.60;;;18.30;81.10;;;;;;4975944;28;20431;-67
2022/05/25 08:18:24;;;;;;;2.73;1.00;;;17.80;84.00;;;;;;4979486;28;20450;-66
2022/05/25 08:20:49;;;;;;;4.43;0.77;;;17.40;84.50;;;;;;4981179;28;20196;-66
2022/05/25 08:23:16;;;;;;;5.17;0.77;;;17.30;82.30;;;;;;4986897;28;20593;-67
2022/05/25 08:25:43;;;;;;;2.07;0.87;;;17.00;84.40;;;;;;4976762;28;20571;-66
2022/05/25 08:28:09;;;;;;;1.50;0.60;;;17.10;85.10;;;;;;4994731;28;20422;-67
2022/05/25 08:30:37;;;;;;;3.73;1.00;;;18.30;83.80;;;;;;4995406;28;20782;-67
2022/05/25 08:33:03;;;;;;;1.50;0.60;;;19.30;80.90;;;;;;4988076;28;20445;-67
2022/05/25 08:35:30;;;;;;;2.97;0.80;;;20.20;79.70;;;;;;4994588;28;20421;-68
2022/05/25 08:37:57;;;;;;;2.50;0.80;;;21.30;75.10;;;;;;4985591;28;20430;-67
2022/05/25 08:40:24;;;;;;;7.67;1.03;;;21.60;79.50;;;;;;4985696;28;20442;-67
2022/05/25 08:43:18;;;;;;;2.37;0.80;;;22.00;77.50;;;;;;4988529;28;20472;-67
2022/05/25 08:45:54;;;;;;;2.40;0.60;;;22.20;73.30;;;;;;4989837;28;20445;-67
2022/05/25 08:48:21;;;;;;;4.37;0.60;;;21.40;75.20;;;;;;4981981;28;20462;-67
2022/05/25 08:50:53;;;;;;;1.53;0.57;;;21.00;77.30;;;;;;4982284;28;20434;-68
2022/05/25 08:53:23;;;;;;;1.70;0.60;;;21.50;76.40;;;;;;4986902;28;20446;-67
2022/05/25 08:56:18;;;;;;;1.50;0.50;;;22.00;73.30;;;;;;4985774;28;20418;-67
2022/05/25 08:59:25;;;;;;;3.10;1.10;;;22.10;71.10;;;;;;4984029;28;20237;-67
2022/05/25 09:01:58;;;;;;;3.40;0.60;;;21.20;72.30;;;;;;4975834;28;20526;-67
2022/05/25 09:04:42;;;;;;;2.00;0.60;;;20.50;73.80;;;;;;4987178;28;20552;-67
2022/05/25 09:07:32;;;;;;;1.40;0.50;;;20.50;72.60;;;;;;4983934;28;20902;-67
2022/05/25 09:09:58;;;;;;;2.43;0.70;;;19.80;76.90;;;;;;4983292;28;20557;-67
2022/05/25 09:12:36;;;;;;;3.83;0.60;;;20.40;74.90;;;;;;4989355;28;20524;-71
2022/05/25 09:15:04;;;;;;;2.60;0.70;;;21.00;74.30;;;;;;4995743;28;20880;-66
2022/05/25 09:17:37;;;;;;;2.10;0.60;;;21.30;69.80;;;;;;4992474;28;20883;-68
2022/05/25 09:20:06;;;;;;;1.97;0.60;;;20.90;70.20;;;;;;4986771;28;20439;-67
2022/05/25 09:22:31;;;;;;;5.67;0.60;;;20.30;73.50;;;;;;4983079;28;20496;-66
2022/05/25 09:25:00;;;;;;;1.70;0.80;;;19.80;74.30;;;;;;4983513;28;20812;-68
2022/05/25 09:27:36;;;;;;;4.17;0.80;;;19.50;73.90;;;;;;4984720;28;20180;-69
2022/05/25 09:30:03;;;;;;;1.90;0.80;;;19.10;77.90;;;;;;4987902;28;20447;-69
2022/05/25 09:32:53;;;;;;;1.70;0.67;;;19.40;78.60;;;;;;4987784;28;20943;-69
2022/05/25 09:35:32;;;;;;;2.73;0.90;;;20.20;72.90;;;;;;4984567;28;20532;-69
2022/05/25 09:38:03;;;;;;;1.70;0.60;;;21.00;72.10;;;;;;4988028;28;21004;-69
2022/05/25 09:40:40;;;;;;;2.10;0.70;;;21.10;72.40;;;;;;4975124;28;20438;-70
2022/05/25 09:43:09;;;;;;;3.07;0.97;;;20.90;75.10;;;;;;4995814;28;20465;-69
2022/05/25 09:45:50;;;;;;;2.27;0.60;;;20.80;74.20;;;;;;4996534;28;21013;-69
2022/05/25 09:48:25;;;;;;;6.20;0.70;;;20.50;75.10;;;;;;4987141;28;20438;-69
2022/05/25 09:51:04;;;;;;;3.73;1.43;;;20.20;76.20;;;;;;4978868;28;20438;-70
2022/05/25 09:53:39;;;;;;;4.60;0.67;;;20.10;74.50;;;;;;4987278;28;20805;-69
2022/05/25 09:56:34;;;;;;;2.30;0.73;;;19.70;76.00;;;;;;4987551;28;20442;-69
2022/05/25 09:59:08;;;;;;;3.13;0.93;;;19.30;76.60;;;;;;4976549;28;20883;-69
2022/05/25 10:01:43;;;;;;;1.50;0.60;;;19.40;75.60;;;;;;4985949;28;20838;-69
2022/05/25 10:04:13;;;;;;;2.03;0.60;;;19.30;76.10;;;;;;4980314;28;20470;-67
2022/05/25 10:06:50;;;;;;;8.27;0.90;;;19.10;76.90;;;;;;4990268;28;20425;-67
2022/05/25 10:09:26;;;;;;;4.33;0.90;;;19.10;77.30;;;;;;4992543;28;20465;-65
2022/05/25 10:11:53;;;;;;;1.73;0.80;;;18.90;79.00;;;;;;4990917;28;20501;-66
2022/05/25 10:14:30;;;;;;;1.40;0.60;;;18.80;77.30;;;;;;4990949;28;20433;-67
2022/05/25 10:17:10;;;;;;;1.90;0.60;;;18.70;77.60;;;;;;4990940;28;20461;-67
2022/05/25 10:19:46;;;;;;;1.40;0.60;;;18.70;81.30;;;;;;4990300;28;20422;-67
2022/05/25 10:22:42;;;;;;;1.57;0.63;;;18.70;79.50;;;;;;4989871;28;20586;-67
2022/05/25 10:25:29;;;;;;;1.50;0.60;;;18.60;79.90;;;;;;4988354;28;20840;-67
2022/05/25 10:27:57;;;;;;;2.63;0.63;;;18.60;78.90;;;;;;4989338;28;20430;-66
2022/05/25 10:39:28;;;;;;;3.50;0.60;;;18.60;77.30;;;;;;4981801;28;20489;-65
2022/05/25 10:42:12;;;;;;;4.07;0.80;;;18.70;78.60;;;;;;4991654;28;21179;-66
2022/05/25 10:44:57;;;;;;;2.90;0.90;;;19.10;78.30;;;;;;4991458;28;20469;-66
2022/05/25 10:47:50;;;;;;;1.80;0.80;;;19.40;77.80;;;;;;5002035;28;20906;-66
2022/05/25 10:50:25;;;;;;;1.50;0.63;;;19.70;78.60;;;;;;4996327;28;20426;-65
2022/05/25 10:53:01;;;;;;;1.90;0.77;;;20.10;75.00;;;;;;5000440;28;20425;-66
2022/05/25 10:55:37;;;;;;;2.87;1.13;;;20.00;76.10;;;;;;4989575;28;20499;-65
2022/05/25 10:58:17;;;;;;;2.23;0.80;;;20.40;71.40;;;;;;4998207;28;20423;-65
2022/05/25 11:00:57;;;;;;;1.30;0.50;;;20.50;76.60;;;;;;5000228;28;20458;-65
2022/05/25 11:03:32;;;;;;;1.40;0.50;;;20.60;76.30;;;;;;5000368;28;20466;-65
2022/05/25 11:06:08;;;;;;;7.43;0.90;;;20.60;73.60;;;;;;4995009;28;20430;-65
2022/05/25 11:08:34;;;;;;;1.60;0.83;;;20.40;72.10;;;;;;4993616;28;20697;-65
2022/05/25 11:11:18;;;;;;;2.17;0.60;;;20.20;73.20;;;;;;4992322;28;20433;-65
2022/05/25 11:14:07;;;;;;;1.53;0.63;;;19.90;73.20;;;;;;4993272;28;20202;-65
2022/05/25 11:17:02;;;;;;;2.00;0.60;;;19.50;71.30;;;;;;4993604;28;20447;-64
2022/05/25 11:19:56;;;;;;;2.40;0.70;;;19.50;75.00;;;;;;4997425;28;20524;-65
2022/05/25 11:22:40;;;;;;;4.83;0.60;;;19.50;73.60;;;;;;4998988;28;20410;-65
2022/05/25 11:25:09;;;;;;;1.40;0.60;;;19.80;74.60;;;;;;4996927;28;20879;-65
2022/05/25 11:28:12;;;;;;;2.50;0.70;;;19.90;71.80;;;;;;4993476;28;20415;-65
2022/05/25 11:31:23;;;;;;;1.67;0.70;;;19.70;70.30;;;;;;4993415;28;20439;-65
2022/05/25 11:34:13;;;;;;;1.60;0.80;;;19.40;73.30;;;;;;4997023;28;20482;-65
2022/05/25 11:36:44;;;;;;;1.60;0.70;;;19.30;73.20;;;;;;4987675;28;20442;-65
2022/05/25 11:39:31;;;;;;;2.03;0.80;;;19.20;75.80;;;;;;5000962;28;20526;-65
2022/05/25 11:41:56;;;;;;;1.50;0.60;;;19.20;72.30;;;;;;4986552;28;21127;-65
2022/05/25 11:44:30;;;;;;;2.57;0.97;;;19.20;77.50;;;;;;4996732;28;20462;-64
2022/05/25 11:47:09;;;;;;;1.60;0.70;;;19.30;75.40;;;;;;4999925;28;21116;-65
2022/05/25 11:50:12;;;;;;;6.40;0.70;;;19.40;75.10;;;;;;4989125;28;20808;-65
2022/05/25 11:53:06;;;;;;;2.67;0.77;;;19.30;71.30;;;;;;4990928;28;20842;-65
2022/05/25 11:55:49;;;;;;;1.70;0.60;;;19.80;73.50;;;;;;4992874;28;20425;-65
2022/05/25 11:58:16;;;;;;;1.40;0.60;;;20.30;70.70;;;;;;4993829;28;20410;-65
2022/05/25 12:01:10;;;;;;;1.93;0.70;;;20.70;67.30;;;;;;5003917;28;20423;-65
2022/05/25 12:03:35;;;;;;;4.23;0.87;;;21.00;67.50;;;;;;4986501;28;20469;-65
2022/05/25 12:06:06;;;;;;;1.37;0.50;;;21.20;68.00;;;;;;4993146;28;20423;-64
2022/05/25 12:09:01;;;;;;;1.80;1.00;;;21.20;68.60;;;;;;5003650;28;20702;-65
2022/05/25 12:11:55;;;;;;;1.40;0.50;;;21.20;66.90;;;;;;4990375;28;21122;-65
2022/05/25 12:14:42;;;;;;;2.20;0.73;;;21.50;65.10;;;;;;4995587;28;20427;-65
2022/05/25 12:17:23;;;;;;;1.30;0.40;;;21.60;65.20;;;;;;5000989;28;20935;-65
2022/05/25 12:19:53;;;;;;;2.37;0.63;;;21.70;68.10;;;;;;4993072;28;20429;-65
2022/05/25 12:22:23;;;;;;;6.10;0.80;;;21.60;61.50;;;;;;4998055;28;20418;-65
2022/05/25 12:24:56;;;;;;;2.30;0.60;;;21.30;64.30;;;;;;4993703;28;20552;-65
2022/05/25 12:27:28;;;;;;;1.57;0.60;;;20.70;64.10;;;;;;4994699;28;20423;-65
2022/05/25 12:30:00;;;;;;;2.83;1.00;;;20.40;65.20;;;;;;4998578;28;20430;-65
2022/05/25 12:32:27;;;;;;;1.70;0.67;;;20.60;68.80;;;;;;4991648;28;20468;-64
2022/05/25 12:34:54;;;;;;;1.93;0.70;;;21.10;65.20;;;;;;4994947;28;20907;-65
2022/05/25 12:37:42;;;;;;;6.80;0.77;;;21.20;63.50;;;;;;4991692;28;20501;-64
2022/05/25 12:40:10;;;;;;;1.30;0.50;;;21.10;62.20;;;;;;4989713;28;20440;-65
2022/05/25 12:42:38;;;;;;;1.87;0.70;;;20.80;64.20;;;;;;4992771;28;20425;-65
2022/05/25 12:50:57;;;;;;;1.40;0.50;;;20.50;60.70;;;;;;4995998;28;20493;-65
2022/05/25 12:53:37;;;;;;;1.70;0.70;;;20.20;65.60;;;;;;4993358;28;20798;-66
2022/05/25 12:56:18;;;;;;;6.93;1.03;;;20.10;67.50;;;;;;4999135;28;20423;-65
2022/05/25 12:58:46;;;;;;;1.93;0.70;;;20.40;64.90;;;;;;4988654;28;20421;-65
2022/05/25 13:01:27;;;;;;;6.10;0.57;;;20.40;66.60;;;;;;4996184;28;20566;-65
2022/05/25 13:03:55;;;;;;;2.10;0.83;;;20.30;66.50;;;;;;4999676;28;20500;-65
2022/05/25 13:06:42;;;;;;;6.37;0.67;;;20.00;62.90;;;;;;4996378;28;20476;-65
2022/05/25 13:09:17;;;;;;;3.33;0.70;;;19.80;61.40;;;;;;4999605;28;20480;-64
2022/05/25 13:11:47;;;;;;;1.40;0.60;;;19.80;65.10;;;;;;4985949;28;20528;-65
2022/05/25 13:14:22;;;;;;;3.97;0.67;;;20.10;65.70;;;;;;4995403;28;20418;-65
2022/05/25 13:16:51;;;;;;;4.90;0.80;;;20.60;64.70;;;;;;4999124;28;21221;-65
2022/05/25 13:19:32;;;;;;;1.97;0.80;;;21.20;65.00;;;;;;4995035;28;20431;-65
2022/05/25 13:22:07;;;;;;;4.53;0.77;;;21.70;64.00;;;;;;4999074;28;21293;-64
2022/05/25 13:24:43;;;;;;;3.87;0.87;;;21.90;64.20;;;;;;4984803;28;20469;-65
2022/05/25 13:27:21;;;;;;;1.90;0.70;;;21.60;66.40;;;;;;4994743;28;20568;-65
2022/05/25 13:30:02;;;;;;;1.30;0.40;;;21.40;61.60;;;;;;4989829;28;20423;-65
2022/05/25 13:32:46;;;;;;;3.93;0.70;;;21.50;59.40;;;;;;4992658;28;20422;-65
2022/05/25 13:35:21;;;;;;;1.33;0.50;;;21.80;58.10;;;;;;4996818;28;20525;-65
2022/05/25 13:37:50;;;;;;;1.80;0.70;;;21.50;58.20;;;;;;4994687;28;20758;-65
2022/05/25 13:40:25;;;;;;;1.30;0.50;;;21.30;59.60;;;;;;4990426;28;20441;-65